Main page
METAR-TAF:

METAR-TAF

Airports :

Curaçao, Netherlands Antilles

Curaçao International Airport

latitude: 12-12N, longitude: 068-58W, elevation: 9 m

Current weather observation

The report was made 1 hour and 6 minutes ago, at 05:00 UTC
Wind 10 kt from the East/Southeast
Temperature 28°C
Humidity 74%
Pressure 1011 hPa
Visibility 10 km or more
Few clouds at a height of 1800 ft

METAR: TNCC 240500Z 12010KT 9999 FEW018 28/23 Q1011 NOSIG

Time: 02:06 (06:06 UTC)

Forecast

The report was made 2 hours and 24 minutes ago, at 03:42 UTC
Forecast valid from 24 at 06 UTC to 25 at 06 UTC
Wind 14 kt from the East with gusts up to 26 kt
Visibility 10 km or more
Scattered clouds at a height of 2000 ft
Temporary
from 24 at 06 UTC to 24 at 12 UTC
Broken clouds at a height of 1500 ft

TAF: TNCC 240342Z 2406/2506 10014G26KT 9999 SCT020 TEMPO 2406/2412 BKN015

Weather observations and forecasts of more than 4000 airports (METAR and TAF reports).

The available stations are represented by yellow and red dots on the map.

Hover mouse over dot to see the name of the station.

Then click to see weather observations and forecasts.

To change the map : click on the green buttons with a black cross to zoom in, on the green button with a dash to zoom out, or on the green arrows for adjacent maps.


METAR-TAF: